Time;durP1;ratioP1;P1;durP2;ratioP2;P2;SDS_P1;SDS_P2;PMS_P1;PMS_P2;Temp;Humidity;BMP_temperature;BMP_pressure;BME280_temperature;BME280_humidity;BME280_pressure;Samples;Min_cycle;Max_cycle;Signal;HPM_P1;HPM_P2
2022/10/05 00:00:44;;;;;;;;;;;15.00;99.90;;;;;;5111524;28;19973;-82
2022/10/05 00:03:10;;;;;;;;;;;15.00;99.90;;;;;;5095660;28;20016;-81
2022/10/05 00:05:36;;;;;;;;;;;15.00;99.90;;;;;;5088153;28;19923;-81
2022/10/05 00:08:11;;;;;;;;;;;15.00;99.90;;;;;;5119863;28;20042;-81
2022/10/05 00:10:38;;;;;;;;;;;14.90;99.90;;;;;;5095839;28;20352;-82
2022/10/05 00:13:09;;;;;;;;;;;14.90;99.90;;;;;;5096182;28;19924;-81
2022/10/05 00:15:34;;;;;;;;;;;14.90;99.90;;;;;;5117128;28;19924;-81
2022/10/05 00:18:01;;;;;;;;;;;14.90;99.90;;;;;;5106839;28;20000;-81
2022/10/05 00:20:27;;;;;;;;;;;14.90;99.90;;;;;;5095172;28;19974;-81
2022/10/05 00:22:57;;;;;;;;;;;14.90;99.90;;;;;;5127320;27;19927;-81
2022/10/05 00:25:22;;;;;;;;;;;14.90;99.90;;;;;;5115655;28;19924;-81
2022/10/05 00:27:56;;;;;;;;;;;14.90;99.90;;;;;;5120192;27;20394;-82
2022/10/05 00:30:22;;;;;;;;;;;14.90;99.90;;;;;;5136605;27;20367;-81
2022/10/05 00:32:47;;;;;;;;;;;15.00;99.90;;;;;;5130230;27;20315;-81
2022/10/05 00:35:14;;;;;;;;;;;14.90;99.90;;;;;;5126224;27;19924;-81
2022/10/05 00:37:40;;;;;;;;;;;14.90;99.90;;;;;;5086232;27;19931;-81
2022/10/05 00:40:29;;;;;;;;;;;15.00;99.90;;;;;;5107309;28;19923;-80
2022/10/05 00:42:54;;;;;;;;;;;15.00;99.90;;;;;;5103793;28;20275;-81
2022/10/05 00:45:23;;;;;;;;;;;15.00;99.90;;;;;;5116200;28;19924;-81
2022/10/05 00:47:48;;;;;;;;;;;15.00;99.90;;;;;;5099013;28;20371;-81
2022/10/05 00:50:14;;;;;;;;;;;15.00;99.90;;;;;;5102055;27;19938;-80
2022/10/05 00:52:46;;;;;;;;;;;15.00;99.90;;;;;;5119827;27;19924;-81
2022/10/05 00:55:17;;;;;;;;;;;15.00;99.90;;;;;;5117956;27;19935;-81
2022/10/05 00:58:02;;;;;;;;;;;15.00;99.90;;;;;;5131900;27;19923;-81
2022/10/05 01:00:27;;;;;;;;;;;15.00;99.90;;;;;;5119169;27;19923;-81
2022/10/05 01:02:57;;;;;;;;;;;15.00;99.90;;;;;;5112172;28;19924;-81
2022/10/05 01:05:39;;;;;;;;;;;15.00;99.90;;;;;;5104021;28;20260;-81
2022/10/05 01:08:20;;;;;;;;;;;15.00;99.90;;;;;;5117145;27;19923;-81
2022/10/05 01:11:07;;;;;;;;;;;15.00;99.90;;;;;;5108723;28;19930;-81
2022/10/05 01:13:41;;;;;;;;;;;15.00;99.90;;;;;;5104824;28;19927;-81
2022/10/05 01:16:17;;;;;;;;;;;15.00;99.90;;;;;;5116111;28;20015;-80
2022/10/05 01:18:43;;;;;;;;;;;15.00;99.90;;;;;;5115093;28;20017;-81
2022/10/05 01:21:11;;;;;;;;;;;15.10;99.90;;;;;;5123413;27;19978;-81
2022/10/05 01:23:49;;;;;;;;;;;15.00;99.90;;;;;;5118795;27;19930;-84
2022/10/05 01:26:15;;;;;;;;;;;15.00;99.90;;;;;;5116656;27;20438;-81
2022/10/05 01:28:45;;;;;;;;;;;15.00;99.90;;;;;;5118873;27;20053;-82
2022/10/05 01:31:17;;;;;;;;;;;15.00;99.90;;;;;;5118778;27;19927;-81
2022/10/05 01:33:51;;;;;;;;;;;15.00;99.90;;;;;;5127278;27;19923;-81
2022/10/05 01:36:22;;;;;;;;;;;15.00;99.90;;;;;;5108204;28;19931;-81
2022/10/05 01:38:51;;;;;;;;;;;15.00;99.90;;;;;;5129384;27;19924;-81
2022/10/05 01:41:37;;;;;;;;;;;15.00;99.90;;;;;;5109073;28;20295;-81
2022/10/05 01:44:14;;;;;;;;;;;15.00;99.90;;;;;;5114857;28;19924;-80
2022/10/05 01:46:39;;;;;;;;;;;15.00;99.90;;;;;;5099314;28;20007;-86
2022/10/05 01:49:11;;;;;;;;;;;15.00;99.90;;;;;;5109391;27;20005;-81
2022/10/05 01:51:40;;;;;;;;;;;15.00;99.90;;;;;;5103498;28;19976;-81
2022/10/05 01:54:29;;;;;;;;;;;15.00;99.90;;;;;;5099971;28;20057;-81
2022/10/05 01:57:13;;;;;;;;;;;15.00;99.90;;;;;;5093237;28;19924;-81
2022/10/05 01:59:45;;;;;;;;;;;14.90;99.90;;;;;;5115308;28;19923;-81
2022/10/05 02:02:16;;;;;;;;;;;14.90;99.90;;;;;;5130862;27;19923;-81
2022/10/05 02:04:44;;;;;;;;;;;14.90;99.90;;;;;;5122422;27;20018;-83
2022/10/05 02:07:30;;;;;;;;;;;14.90;99.90;;;;;;5099618;27;19972;-81
2022/10/05 02:09:58;;;;;;;;;;;14.90;99.90;;;;;;5083158;28;19967;-81
2022/10/05 02:12:26;;;;;;;;;;;14.90;99.90;;;;;;5116772;27;19924;-80
2022/10/05 02:14:54;;;;;;;;;;;14.90;99.90;;;;;;5114815;28;19928;-81
2022/10/05 02:17:23;;;;;;;;;;;14.90;99.90;;;;;;5097590;28;19923;-81
2022/10/05 02:19:55;;;;;;;;;;;14.90;99.90;;;;;;5100292;27;20358;-81
2022/10/05 02:22:31;;;;;;;;;;;14.90;99.90;;;;;;5110470;28;19928;-81
2022/10/05 02:24:58;;;;;;;;;;;14.90;99.90;;;;;;5109362;27;19931;-81
2022/10/05 02:27:30;;;;;;;;;;;14.90;99.90;;;;;;5133511;27;19924;-81
2022/10/05 02:29:58;;;;;;;;;;;14.90;99.90;;;;;;5121582;27;19931;-81
2022/10/05 02:32:26;;;;;;;;;;;14.90;99.90;;;;;;5097615;28;20454;-81
2022/10/05 02:34:51;;;;;;;;;;;14.90;99.90;;;;;;5097519;28;20367;-81
2022/10/05 02:37:17;;;;;;;;;;;14.90;99.90;;;;;;5129187;27;19930;-82
2022/10/05 02:40:02;;;;;;;;;;;14.90;99.90;;;;;;5127393;27;19930;-81
2022/10/05 02:42:31;;;;;;;;;;;14.90;99.90;;;;;;5097488;28;19923;-81
2022/10/05 02:45:03;;;;;;;;;;;15.00;99.90;;;;;;5096974;28;19946;-81
2022/10/05 02:47:32;;;;;;;;;;;14.90;99.90;;;;;;5134200;27;19930;-81
2022/10/05 02:49:57;;;;;;;;;;;15.00;99.90;;;;;;5123127;27;20010;-81
2022/10/05 02:52:38;;;;;;;;;;;14.90;99.90;;;;;;5134575;27;19963;-81
2022/10/05 02:55:12;;;;;;;;;;;15.00;99.90;;;;;;5129649;27;19924;-81
2022/10/05 02:57:39;;;;;;;;;;;15.00;99.90;;;;;;5117387;27;19924;-82
2022/10/05 03:00:19;;;;;;;;;;;15.00;99.90;;;;;;5129523;27;19924;-82
2022/10/05 03:03:03;;;;;;;;;;;14.90;99.90;;;;;;5134703;27;20426;-81
2022/10/05 03:05:50;;;;;;;;;;;15.00;99.90;;;;;;5134616;27;19923;-81
2022/10/05 03:08:15;;;;;;;;;;;14.90;99.90;;;;;;5134726;27;19923;-81
2022/10/05 03:10:44;;;;;;;;;;;14.90;99.90;;;;;;5117314;27;20363;-81
2022/10/05 03:13:10;;;;;;;;;;;14.90;99.90;;;;;;5134346;27;19930;-81
2022/10/05 03:15:52;;;;;;;;;;;14.90;99.90;;;;;;5116925;27;19924;-81
2022/10/05 03:18:36;;;;;;;;;;;14.90;99.90;;;;;;5134010;27;19974;-82
2022/10/05 03:21:22;;;;;;;;;;;14.90;99.90;;;;;;5134061;27;19950;-82
2022/10/05 03:24:07;;;;;;;;;;;14.90;99.90;;;;;;5117075;27;20390;-82
2022/10/05 03:26:35;;;;;;;;;;;14.90;99.90;;;;;;5131070;27;20015;-82
2022/10/05 03:29:04;;;;;;;;;;;14.90;99.90;;;;;;5096600;28;19934;-82
2022/10/05 03:31:45;;;;;;;;;;;14.90;99.90;;;;;;5096742;28;19947;-82
2022/10/05 03:34:16;;;;;;;;;;;14.90;99.90;;;;;;5096399;28;19930;-82
2022/10/05 03:36:48;;;;;;;;;;;14.90;99.90;;;;;;5133372;27;19927;-82
2022/10/05 03:39:27;;;;;;;;;;;14.90;99.90;;;;;;5096305;28;19977;-82
2022/10/05 03:41:53;;;;;;;;;;;14.90;99.90;;;;;;5110637;27;19923;-83
2022/10/05 03:44:18;;;;;;;;;;;14.90;99.90;;;;;;5116872;27;20014;-82
2022/10/05 03:47:03;;;;;;;;;;;14.90;99.90;;;;;;5116815;27;19924;-82
2022/10/05 03:49:48;;;;;;;;;;;14.90;99.90;;;;;;5114079;27;19923;-82
2022/10/05 03:52:37;;;;;;;;;;;14.90;99.90;;;;;;5096179;28;19928;-81
2022/10/05 03:55:07;;;;;;;;;;;14.90;99.90;;;;;;5108619;27;19974;-81
2022/10/05 03:57:35;;;;;;;;;;;14.90;99.90;;;;;;5132581;27;20336;-81
2022/10/05 04:00:22;;;;;;;;;;;15.00;99.90;;;;;;5098943;27;20002;-82
2022/10/05 04:03:06;;;;;;;;;;;15.00;99.90;;;;;;5116609;28;19931;-81
2022/10/05 04:05:50;;;;;;;;;;;14.90;99.90;;;;;;5109273;28;20279;-81
2022/10/05 04:08:30;;;;;;;;;;;14.90;99.90;;;;;;5096283;28;19934;-80
2022/10/05 04:10:58;;;;;;;;;;;15.00;99.90;;;;;;5097246;28;19932;-86
2022/10/05 04:13:42;;;;;;;;;;;15.00;99.90;;;;;;5104142;28;19985;-81
2022/10/05 04:16:07;;;;;;;;;;;15.00;99.90;;;;;;5095616;28;19969;-82
2022/10/05 04:18:33;;;;;;;;;;;15.00;99.90;;;;;;5096587;28;19928;-82
2022/10/05 04:21:03;;;;;;;;;;;15.00;99.90;;;;;;5113621;28;19923;-82
2022/10/05 04:23:51;;;;;;;;;;;15.00;99.90;;;;;;5095359;28;19924;-82
2022/10/05 04:26:18;;;;;;;;;;;15.00;99.90;;;;;;5086623;28;19924;-82
2022/10/05 04:28:56;;;;;;;;;;;15.00;99.90;;;;;;5095485;28;19931;-82
2022/10/05 04:31:35;;;;;;;;;;;14.90;99.90;;;;;;5096399;28;19983;-81
2022/10/05 04:34:17;;;;;;;;;;;14.90;99.90;;;;;;5115460;28;19927;-82
2022/10/05 04:36:47;;;;;;;;;;;14.90;99.90;;;;;;5104539;28;20388;-82
2022/10/05 04:39:16;;;;;;;;;;;14.90;99.90;;;;;;5103001;28;20019;-82
2022/10/05 04:41:46;;;;;;;;;;;14.90;99.90;;;;;;5103784;28;19927;-81
2022/10/05 04:44:21;;;;;;;;;;;14.90;99.90;;;;;;5114940;28;19972;-81
2022/10/05 04:47:00;;;;;;;;;;;14.90;99.90;;;;;;5115732;28;19924;-81
2022/10/05 04:49:26;;;;;;;;;;;14.90;99.90;;;;;;5095983;28;20006;-82
2022/10/05 04:52:02;;;;;;;;;;;14.90;99.90;;;;;;5106141;28;19974;-82
2022/10/05 04:54:46;;;;;;;;;;;14.90;99.90;;;;;;5095535;28;19924;-82
2022/10/05 04:57:14;;;;;;;;;;;14.90;99.90;;;;;;5128091;28;20277;-82
2022/10/05 04:59:50;;;;;;;;;;;14.90;99.90;;;;;;5115900;28;19923;-81
2022/10/05 05:02:21;;;;;;;;;;;14.90;99.90;;;;;;5132492;28;19931;-80
2022/10/05 05:05:04;;;;;;;;;;;14.90;99.90;;;;;;5115684;28;20390;-83
2022/10/05 05:07:39;;;;;;;;;;;14.80;99.90;;;;;;5095741;28;19930;-81
2022/10/05 05:10:28;;;;;;;;;;;14.80;99.90;;;;;;5115168;28;19930;-82
2022/10/05 05:12:59;;;;;;;;;;;14.80;99.90;;;;;;5114611;27;19923;-81
2022/10/05 05:15:30;;;;;;;;;;;14.80;99.90;;;;;;5109321;28;19927;-80
2022/10/05 05:18:14;;;;;;;;;;;14.80;99.90;;;;;;5099000;28;19934;-83
2022/10/05 05:20:43;;;;;;;;;;;14.80;99.90;;;;;;5098765;28;19924;-83
2022/10/05 05:23:08;;;;;;;;;;;14.80;99.90;;;;;;5101246;27;20272;-84
2022/10/05 05:25:37;;;;;;;;;;;14.90;99.90;;;;;;5117681;27;19938;-84
2022/10/05 05:28:10;;;;;;;;;;;14.90;99.90;;;;;;5098987;28;19924;-84
2022/10/05 05:30:38;;;;;;;;;;;14.90;99.90;;;;;;5106343;28;19924;-83
2022/10/05 05:33:17;;;;;;;;;;;14.90;99.90;;;;;;5126523;27;19923;-86
2022/10/05 05:35:52;;;;;;;;;;;14.80;99.90;;;;;;5115086;27;20283;-82
2022/10/05 05:38:27;;;;;;;;;;;14.80;99.90;;;;;;5118235;27;19924;-81
2022/10/05 05:40:52;;;;;;;;;;;14.80;99.90;;;;;;5121581;27;20324;-80
2022/10/05 05:43:23;;;;;;;;;;;14.80;99.90;;;;;;5098469;28;20010;-81
2022/10/05 05:46:11;;;;;;;;;;;14.80;99.90;;;;;;5106479;27;19977;-80
2022/10/05 05:48:41;;;;;;;;;;;14.80;99.90;;;;;;5117331;27;19998;-80
2022/10/05 05:51:09;;;;;;;;;;;14.80;99.90;;;;;;5118448;27;19931;-84
2022/10/05 05:53:45;;;;;;;;;;;14.80;99.90;;;;;;5118679;27;19924;-81
2022/10/05 05:56:12;;;;;;;;;;;14.80;99.90;;;;;;5117586;27;19927;-80
2022/10/05 05:58:59;;;;;;;;;;;14.80;99.90;;;;;;5135593;27;20080;-80
2022/10/05 06:01:34;;;;;;;;;;;14.80;99.90;;;;;;5112049;27;19923;-80
2022/10/05 06:04:02;;;;;;;;;;;14.80;99.90;;;;;;5104619;27;19924;-80
2022/10/05 06:06:33;;;;;;;;;;;14.80;99.90;;;;;;5108690;27;20740;-80
2022/10/05 06:09:02;;;;;;;;;;;14.80;99.90;;;;;;5118370;27;19924;-80
2022/10/05 06:11:27;;;;;;;;;;;14.80;99.90;;;;;;5102422;28;19928;-80
2022/10/05 06:13:54;;;;;;;;;;;14.80;99.90;;;;;;5105602;27;19923;-80
2022/10/05 06:16:22;;;;;;;;;;;14.80;99.90;;;;;;5110563;27;20006;-81
2022/10/05 06:18:55;;;;;;;;;;;14.90;99.90;;;;;;5122872;27;19928;-80
2022/10/05 06:21:25;;;;;;;;;;;14.80;99.90;;;;;;5097349;28;19927;-79
2022/10/05 06:23:55;;;;;;;;;;;14.80;99.90;;;;;;5097314;28;19973;-79
2022/10/05 06:26:21;;;;;;;;;;;14.90;99.90;;;;;;5096946;28;20351;-78
2022/10/05 06:28:50;;;;;;;;;;;14.80;99.90;;;;;;5114426;28;19983;-78
2022/10/05 06:31:22;;;;;;;;;;;14.80;99.90;;;;;;5118712;27;19929;-79
2022/10/05 06:33:49;;;;;;;;;;;14.80;99.90;;;;;;5134479;27;20294;-80
2022/10/05 06:36:39;;;;;;;;;;;14.90;99.90;;;;;;5118232;27;19924;-81
2022/10/05 06:39:07;;;;;;;;;;;14.90;99.90;;;;;;5117112;27;19931;-79
2022/10/05 06:41:46;;;;;;;;;;;14.90;99.90;;;;;;5113690;27;19980;-81
2022/10/05 06:44:14;;;;;;;;;;;14.90;99.90;;;;;;5116319;27;20264;-80
2022/10/05 06:46:40;;;;;;;;;;;15.00;99.90;;;;;;5096913;28;20041;-79
2022/10/05 06:49:19;;;;;;;;;;;15.00;99.90;;;;;;5114087;28;19978;-80
2022/10/05 06:51:56;;;;;;;;;;;15.00;99.90;;;;;;5131969;27;19927;-80
2022/10/05 06:54:31;;;;;;;;;;;15.00;99.90;;;;;;5124724;27;19928;-80
2022/10/05 06:57:02;;;;;;;;;;;15.10;99.90;;;;;;5098646;28;20015;-79
2022/10/05 06:59:34;;;;;;;;;;;15.10;99.90;;;;;;5105069;27;19930;-81
2022/10/05 07:01:59;;;;;;;;;;;15.10;99.90;;;;;;5112050;27;19998;-89
2022/10/05 07:04:47;;;;;;;;;;;15.10;99.90;;;;;;5114922;27;20005;-81
2022/10/05 07:07:28;;;;;;;;;;;15.10;99.90;;;;;;5128480;27;20377;-82
2022/10/05 07:10:09;;;;;;;;;;;15.10;99.90;;;;;;5114704;27;19924;-81
2022/10/05 07:13:01;;;;;;;;;;;15.20;99.90;;;;;;5096350;28;20608;-83
2022/10/05 07:15:39;;;;;;;;;;;15.20;99.90;;;;;;5123191;27;19971;-83
2022/10/05 07:18:11;;;;;;;;;;;15.20;99.90;;;;;;5126830;27;20355;-83
2022/10/05 07:20:36;;;;;;;;;;;15.20;99.90;;;;;;5095382;28;19977;-82
2022/10/05 07:23:20;;;;;;;;;;;15.20;99.90;;;;;;5113284;28;19924;-84
2022/10/05 07:26:08;;;;;;;;;;;15.20;99.90;;;;;;5113140;27;19923;-85
2022/10/05 07:28:36;;;;;;;;;;;15.20;99.90;;;;;;5109668;28;19923;-80
2022/10/05 07:31:08;;;;;;;;;;;15.30;99.90;;;;;;5096553;28;19924;-78
2022/10/05 07:33:37;;;;;;;;;;;15.30;99.90;;;;;;5096561;28;19930;-84
2022/10/05 07:39:20;;;;;;;;;;;15.40;99.90;;;;;;5124432;27;19935;-83
2022/10/05 07:42:00;;;;;;;;;;;15.40;99.90;;;;;;5105055;28;19924;-84
2022/10/05 07:44:32;;;;;;;;;;;15.50;99.90;;;;;;5096008;28;19924;-84
2022/10/05 07:47:08;;;;;;;;;;;15.40;99.90;;;;;;5096303;28;19989;-82
2022/10/05 07:49:52;;;;;;;;;;;15.40;99.90;;;;;;5113659;28;19924;-84
2022/10/05 07:52:23;;;;;;;;;;;15.40;99.90;;;;;;5113065;28;19928;-84
2022/10/05 07:55:05;;;;;;;;;;;15.40;99.90;;;;;;5096097;28;20363;-78
2022/10/05 07:57:40;;;;;;;;;;;15.50;99.90;;;;;;5112331;28;19986;-82
2022/10/05 08:00:12;;;;;;;;;;;15.50;99.90;;;;;;5126029;27;20017;-82
2022/10/05 08:02:48;;;;;;;;;;;15.60;99.90;;;;;;5115785;27;19931;-81
2022/10/05 08:05:20;;;;;;;;;;;15.60;99.90;;;;;;5116055;28;19978;-82
2022/10/05 08:07:47;;;;;;;;;;;15.80;99.90;;;;;;5116084;27;19966;-83
2022/10/05 08:10:19;;;;;;;;;;;15.70;99.90;;;;;;5131248;27;19977;-78
2022/10/05 08:12:52;;;;;;;;;;;15.80;99.90;;;;;;5115263;28;20375;-79
2022/10/05 08:15:46;;;;;;;;;;;15.90;99.90;;;;;;5132695;28;20374;-82
2022/10/05 08:18:30;;;;;;;;;;;15.90;99.90;;;;;;5104744;28;19928;-79
2022/10/05 08:20:56;;;;;;;;;;;15.90;99.90;;;;;;5105016;28;19930;-82
2022/10/05 08:23:41;;;;;;;;;;;16.00;99.90;;;;;;5112073;28;20469;-82
2022/10/05 08:26:16;;;;;;;;;;;16.00;99.90;;;;;;5131547;28;19924;-80
2022/10/05 08:28:45;;;;;;;;;;;16.00;99.90;;;;;;5115478;28;20366;-80
2022/10/05 08:31:14;;;;;;;;;;;16.10;99.90;;;;;;5107682;28;20374;-79
2022/10/05 08:33:52;;;;;;;;;;;16.10;99.90;;;;;;5094994;28;19947;-80
2022/10/05 08:36:22;;;;;;;;;;;16.10;99.90;;;;;;5095746;28;19924;-79
2022/10/05 08:38:50;;;;;;;;;;;16.20;99.90;;;;;;5094853;28;20018;-79
2022/10/05 08:41:25;;;;;;;;;;;16.20;99.90;;;;;;5112344;28;20019;-81
2022/10/05 08:43:52;;;;;;;;;;;16.30;99.90;;;;;;5113709;28;20353;-80
2022/10/05 08:46:33;;;;;;;;;;;16.30;99.90;;;;;;5099233;28;19927;-79
2022/10/05 08:49:07;;;;;;;;;;;16.40;99.90;;;;;;5116426;28;19977;-79
2022/10/05 08:51:43;;;;;;;;;;;16.40;99.90;;;;;;5102095;27;19928;-80
2022/10/05 08:54:21;;;;;;;;;;;16.40;99.90;;;;;;5119605;27;19930;-86
2022/10/05 08:56:54;;;;;;;;;;;16.50;99.90;;;;;;5119497;27;19927;-81
2022/10/05 08:59:38;;;;;;;;;;;16.50;99.90;;;;;;5136758;27;19929;-81
2022/10/05 09:02:22;;;;;;;;;;;16.60;99.90;;;;;;5114032;27;19977;-82
2022/10/05 09:04:51;;;;;;;;;;;16.60;99.90;;;;;;5117054;27;19928;-85
2022/10/05 09:07:35;;;;;;;;;;;16.60;99.90;;;;;;5119611;27;20333;-81
2022/10/05 09:10:06;;;;;;;;;;;16.70;99.90;;;;;;5128491;27;20283;-83
2022/10/05 09:12:38;;;;;;;;;;;16.70;99.90;;;;;;5106756;28;19931;-82
2022/10/05 09:15:04;;;;;;;;;;;16.80;99.90;;;;;;5110578;27;19924;-84
2022/10/05 09:17:56;;;;;;;;;;;16.80;99.90;;;;;;5105592;28;19924;-81
2022/10/05 09:20:29;;;;;;;;;;;16.80;99.90;;;;;;5092136;28;19928;-82
2022/10/05 09:23:11;;;;;;;;;;;16.90;99.90;;;;;;5101758;27;20053;-82
2022/10/05 09:25:36;;;;;;;;;;;17.00;99.90;;;;;;5135612;27;19923;-83
2022/10/05 09:28:02;;;;;;;;;;;17.00;99.90;;;;;;5118805;27;19931;-82
2022/10/05 09:30:34;;;;;;;;;;;17.10;99.90;;;;;;5119107;27;20022;-81
2022/10/05 09:33:22;;;;;;;;;;;17.10;99.90;;;;;;5136124;27;19923;-82
2022/10/05 09:36:06;;;;;;;;;;;17.10;99.90;;;;;;5130297;27;19923;-83
2022/10/05 09:38:43;;;;;;;;;;;17.10;99.90;;;;;;5135735;27;20000;-84
2022/10/05 09:41:09;;;;;;;;;;;17.20;99.90;;;;;;5136062;27;19985;-82
2022/10/05 09:43:53;;;;;;;;;;;17.40;99.90;;;;;;5135302;27;19984;-81
2022/10/05 09:46:22;;;;;;;;;;;17.30;99.90;;;;;;5098131;28;19927;-80
2022/10/05 09:49:00;;;;;;;;;;;17.40;99.90;;;;;;5114573;28;20375;-81
2022/10/05 09:51:28;;;;;;;;;;;17.40;99.90;;;;;;5098206;28;19924;-81
2022/10/05 09:54:13;;;;;;;;;;;17.50;99.90;;;;;;5098101;28;19934;-82
2022/10/05 09:56:58;;;;;;;;;;;17.60;99.90;;;;;;5114895;28;19924;-80
2022/10/05 09:59:27;;;;;;;;;;;17.60;99.90;;;;;;5115025;28;19928;-80
2022/10/05 10:02:08;;;;;;;;;;;17.50;99.90;;;;;;5112341;27;19976;-81
2022/10/05 10:04:43;;;;;;;;;;;17.50;99.90;;;;;;5117348;27;20371;-84
2022/10/05 10:07:09;;;;;;;;;;;17.60;99.90;;;;;;5118239;27;19923;-85
2022/10/05 10:09:43;;;;;;;;;;;17.50;99.90;;;;;;5129804;27;19973;-84
2022/10/05 10:12:27;;;;;;;;;;;17.50;99.90;;;;;;5097906;28;19967;-86
2022/10/05 10:15:12;;;;;;;;;;;17.50;99.90;;;;;;5115518;27;19924;-83
2022/10/05 10:17:43;;;;;;;;;;;17.50;99.90;;;;;;5116298;27;20387;-82
2022/10/05 10:20:18;;;;;;;;;;;17.60;99.90;;;;;;5121420;27;19924;-80
2022/10/05 10:22:56;;;;;;;;;;;17.60;99.90;;;;;;5097358;28;19924;-80
2022/10/05 10:25:40;;;;;;;;;;;17.50;99.90;;;;;;5112703;28;19928;-80
2022/10/05 10:28:19;;;;;;;;;;;17.50;99.90;;;;;;5114430;28;19924;-80
2022/10/05 10:31:00;;;;;;;;;;;17.60;99.90;;;;;;5097191;28;19930;-80
2022/10/05 10:33:46;;;;;;;;;;;17.60;99.90;;;;;;5114122;28;20010;-80
2022/10/05 10:36:12;;;;;;;;;;;17.70;99.90;;;;;;5096989;28;20019;-80
2022/10/05 10:38:40;;;;;;;;;;;17.60;99.90;;;;;;5113909;28;19968;-81
2022/10/05 10:41:22;;;;;;;;;;;17.50;99.90;;;;;;5097193;28;19927;-79
2022/10/05 10:44:03;;;;;;;;;;;17.50;99.90;;;;;;5096610;28;19924;-79
2022/10/05 10:46:51;;;;;;;;;;;17.50;99.90;;;;;;5114011;28;19931;-79
2022/10/05 10:49:23;;;;;;;;;;;17.50;99.90;;;;;;5114005;28;19931;-79
2022/10/05 10:52:07;;;;;;;;;;;17.50;99.90;;;;;;5113845;28;19974;-81
2022/10/05 10:54:55;;;;;;;;;;;17.40;99.90;;;;;;5125955;27;19931;-85
2022/10/05 10:57:23;;;;;;;;;;;17.30;99.90;;;;;;5117281;27;20282;-85
2022/10/05 11:00:16;;;;;;;;;;;17.20;99.90;;;;;;5116896;27;19931;-84
2022/10/05 11:03:07;;;;;;;;;;;17.30;99.90;;;;;;5107392;27;19930;-83
2022/10/05 11:05:51;;;;;;;;;;;17.20;99.90;;;;;;5133649;27;19981;-81
2022/10/05 11:08:29;;;;;;;;;;;17.20;99.90;;;;;;5116597;27;20370;-81
2022/10/05 11:10:57;;;;;;;;;;;17.10;99.90;;;;;;5116859;27;20323;-83
2022/10/05 11:13:29;;;;;;;;;;;17.20;99.90;;;;;;5134273;27;19974;-82
2022/10/05 11:16:01;;;;;;;;;;;17.20;99.90;;;;;;5116476;27;19923;-81
2022/10/05 11:18:45;;;;;;;;;;;17.10;99.90;;;;;;5116434;27;19923;-82
2022/10/05 11:21:20;;;;;;;;;;;17.10;99.90;;;;;;5133876;27;19928;-82
2022/10/05 11:23:49;;;;;;;;;;;17.10;99.90;;;;;;5116631;27;19924;-82
2022/10/05 11:26:28;;;;;;;;;;;17.00;99.90;;;;;;5116074;27;19930;-81
2022/10/05 11:29:09;;;;;;;;;;;17.00;99.90;;;;;;5116325;27;19970;-80
2022/10/05 11:31:36;;;;;;;;;;;16.90;99.90;;;;;;5116638;27;20014;-80
2022/10/05 11:34:05;;;;;;;;;;;16.90;99.90;;;;;;5133559;27;20401;-79
2022/10/05 11:36:40;;;;;;;;;;;17.00;99.90;;;;;;5116575;27;19930;-81
2022/10/05 11:39:09;;;;;;;;;;;17.00;99.90;;;;;;5132851;27;19935;-80
2022/10/05 11:41:53;;;;;;;;;;;16.90;99.90;;;;;;5116317;27;20030;-80
2022/10/05 11:44:37;;;;;;;;;;;16.90;99.90;;;;;;5133269;27;20393;-79
2022/10/05 11:47:15;;;;;;;;;;;16.80;99.90;;;;;;5115916;27;20408;-79
2022/10/05 11:49:58;;;;;;;;;;;16.80;99.90;;;;;;5133352;27;19923;-79
2022/10/05 11:52:59;;;;;;;;;;;16.70;99.90;;;;;;5116114;27;19931;-79
2022/10/05 11:55:24;;;;;;;;;;;16.70;99.90;;;;;;5018154;28;20304;-79
2022/10/05 11:57:53;;;;;;;;;;;16.70;99.90;;;;;;5111215;27;19930;-79
2022/10/05 12:00:20;;;;;;;;;;;16.70;99.90;;;;;;5133237;27;19992;-79
2022/10/05 12:02:52;;;;;;;;;;;16.70;99.90;;;;;;5116207;27;19974;-79
2022/10/05 12:05:36;;;;;;;;;;;16.60;99.90;;;;;;5116071;27;19924;-79
2022/10/05 12:08:17;;;;;;;;;;;16.60;99.90;;;;;;5115763;28;19976;-79
2022/10/05 12:10:48;;;;;;;;;;;16.50;99.90;;;;;;5132995;27;19950;-79
2022/10/05 12:13:25;;;;;;;;;;;16.50;99.90;;;;;;5133120;28;19930;-79
2022/10/05 12:16:26;;;;;;;;;;;16.50;99.90;;;;;;5115692;28;19923;-79
2022/10/05 12:18:58;;;;;;;;;;;16.50;99.90;;;;;;5018217;28;20442;-80
2022/10/05 12:21:30;;;;;;;;;;;16.50;99.90;;;;;;5120339;27;20397;-79
2022/10/05 12:23:59;;;;;;;;;;;16.60;99.90;;;;;;5136992;27;20333;-79
2022/10/05 12:26:43;;;;;;;;;;;16.60;99.90;;;;;;5120255;27;19928;-81
2022/10/05 12:29:12;;;;;;;;;;;16.70;99.90;;;;;;5119852;27;20010;-81
2022/10/05 12:31:46;;;;;;;;;;;16.70;99.90;;;;;;5137408;27;19923;-80
2022/10/05 12:34:34;;;;;;;;;;;16.70;99.90;;;;;;5136943;27;20018;-80
2022/10/05 12:36:59;;;;;;;;;;;16.70;99.90;;;;;;5136458;27;20409;-80
2022/10/05 12:39:31;;;;;;;;;;;16.70;99.90;;;;;;5136915;27;20014;-81
2022/10/05 12:42:06;;;;;;;;;;;16.70;99.90;;;;;;5136675;27;20286;-81
2022/10/05 12:44:32;;;;;;;;;;;16.70;99.90;;;;;;5137013;27;19934;-80
2022/10/05 12:47:07;;;;;;;;;;;16.70;99.90;;;;;;5119411;27;19923;-81
2022/10/05 12:49:39;;;;;;;;;;;16.80;99.90;;;;;;5137125;27;20035;-81
2022/10/05 12:52:05;;;;;;;;;;;16.70;99.90;;;;;;5136596;27;19929;-81
2022/10/05 12:54:50;;;;;;;;;;;16.80;99.90;;;;;;5120018;27;19973;-81
2022/10/05 12:57:28;;;;;;;;;;;16.80;99.90;;;;;;5136254;27;19933;-83
2022/10/05 13:00:04;;;;;;;;;;;16.80;99.90;;;;;;5105775;27;19934;-84
2022/10/05 13:02:41;;;;;;;;;;;16.80;99.90;;;;;;5136412;27;19923;-82
2022/10/05 13:05:09;;;;;;;;;;;16.90;99.90;;;;;;5136445;27;19927;-81
2022/10/05 13:07:49;;;;;;;;;;;16.90;99.90;;;;;;5136968;27;19923;-82
2022/10/05 13:10:14;;;;;;;;;;;17.00;99.90;;;;;;5136546;27;19924;-83
2022/10/05 13:13:03;;;;;;;;;;;17.00;99.90;;;;;;5136797;27;19930;-83
2022/10/05 13:15:55;;;;;;;;;;;17.20;99.90;;;;;;5072366;27;19967;-83
2022/10/05 13:18:24;;;;;;;;;;;17.60;99.90;;;;;;5110605;28;19970;-82
2022/10/05 13:20:52;;;;;;;;;;;18.30;99.90;;;;;;5116154;28;19928;-83
2022/10/05 13:23:36;;;;;;;;;;;19.20;99.90;;;;;;5133045;27;20391;-82
2022/10/05 13:26:06;;;;;;;;;;;20.00;99.90;;;;;;5098577;28;19935;-84
2022/10/05 13:28:51;;;;;;;;;;;20.30;99.90;;;;;;5099154;28;19928;-84
2022/10/05 13:31:18;;;;;;;;;;;21.10;99.90;;;;;;5115551;28;19946;-82
2022/10/05 13:33:44;;;;;;;;;;;21.20;99.90;;;;;;5098548;28;19947;-83
2022/10/05 13:36:14;;;;;;;;;;;21.30;99.90;;;;;;5115483;28;20367;-85
2022/10/05 13:39:09;;;;;;;;;;;21.10;99.90;;;;;;5134274;27;19923;-83
2022/10/05 13:41:42;;;;;;;;;;;20.30;99.90;;;;;;5096998;27;20323;-84
2022/10/05 13:44:17;;;;;;;;;;;20.30;99.90;;;;;;5135885;27;20389;-84
2022/10/05 13:46:47;;;;;;;;;;;19.80;99.90;;;;;;5119094;27;19924;-81
2022/10/05 13:49:13;;;;;;;;;;;19.40;99.90;;;;;;5116917;27;19996;-81
2022/10/05 13:51:50;;;;;;;;;;;19.10;99.90;;;;;;5115310;28;19971;-82
2022/10/05 13:54:21;;;;;;;;;;;18.80;99.90;;;;;;5115879;28;19924;-82
2022/10/05 13:56:57;;;;;;;;;;;18.50;99.90;;;;;;5098185;28;20010;-83
2022/10/05 13:59:31;;;;;;;;;;;18.40;99.90;;;;;;5113828;27;20010;-83
2022/10/05 14:02:08;;;;;;;;;;;18.20;99.90;;;;;;5098357;28;19946;-85
2022/10/05 14:04:49;;;;;;;;;;;18.00;99.90;;;;;;5115523;28;19924;-84
2022/10/05 14:07:24;;;;;;;;;;;17.80;99.90;;;;;;5114736;28;19924;-83
2022/10/05 14:09:50;;;;;;;;;;;17.70;99.90;;;;;;5112524;27;19930;-84
2022/10/05 14:12:20;;;;;;;;;;;17.60;99.90;;;;;;5134061;27;19924;-83
2022/10/05 14:14:48;;;;;;;;;;;17.50;99.90;;;;;;5135385;27;20495;-83
2022/10/05 14:17:29;;;;;;;;;;;17.50;99.90;;;;;;5117884;27;20336;-82
2022/10/05 14:19:58;;;;;;;;;;;17.40;99.90;;;;;;5135140;27;19977;-84
2022/10/05 14:22:25;;;;;;;;;;;17.30;99.90;;;;;;5134609;27;19935;-83
2022/10/05 14:24:55;;;;;;;;;;;17.20;99.90;;;;;;5135000;27;19923;-85
2022/10/05 14:27:32;;;;;;;;;;;17.10;99.90;;;;;;5105522;27;19978;-81
2022/10/05 14:30:07;;;;;;;;;;;17.10;99.90;;;;;;5129116;27;19972;-79
2022/10/05 14:32:43;;;;;;;;;;;17.10;99.90;;;;;;5122322;27;19935;-80
2022/10/05 14:35:13;;;;;;;;;;;17.00;99.90;;;;;;5119609;27;19924;-82
2022/10/05 14:37:42;;;;;;;;;;;17.00;99.90;;;;;;5139227;27;19923;-81
2022/10/05 14:40:37;;;;;;;;;;;17.00;99.90;;;;;;5099491;28;20299;-82
2022/10/05 14:43:12;;;;;;;;;;;17.00;99.90;;;;;;5114291;27;19934;-80
2022/10/05 14:45:50;;;;;;;;;;;17.00;99.90;;;;;;5107823;27;19927;-81
2022/10/05 14:48:16;;;;;;;;;;;17.00;99.90;;;;;;5119778;27;20579;-81
2022/10/05 14:50:53;;;;;;;;;;;16.90;99.90;;;;;;5099362;28;19928;-82
2022/10/05 14:53:20;;;;;;;;;;;17.00;99.90;;;;;;5116632;27;19935;-80
2022/10/05 14:55:46;;;;;;;;;;;17.00;99.90;;;;;;5111981;27;19929;-79
2022/10/05 14:58:15;;;;;;;;;;;17.00;99.90;;;;;;5114458;27;20401;-80
2022/10/05 15:00:48;;;;;;;;;;;17.00;99.90;;;;;;5111196;27;19951;-80